Time,TemperatureF,DewpointF,PressureIn,WindDirection,WindDirectionDegrees,WindSpeedMPH,WindSpeedGustMPH,Humidity,HourlyPrecipIn,Conditions,Clouds,dailyrainin,SoftwareType,DateUTC
2013-01-10 00:02:00,42.6,37.0,30.12,South,180,1.0,5.0,79,0.00,,,0.02,weatherlink.com 1.10,2013-01-10 08:02:00,
2013-01-10 00:17:00,41.6,36.0,30.12,South,180,2.0,3.0,81,0.00,,,0.02,weatherlink.com 1.10,2013-01-10 08:17:00,
2013-01-10 00:32:00,40.6,36.0,30.12,South,179,1.0,4.0,84,0.00,,,0.02,weatherlink.com 1.10,2013-01-10 08:32:00,
2013-01-10 00:47:00,40.5,36.0,30.12,South,179,3.0,4.0,84,0.00,,,0.02,weatherlink.com 1.10,2013-01-10 08:47:00,
2013-01-10 01:02:00,40.6,36.0,30.12,South,179,2.0,4.0,84,0.00,,,0.02,weatherlink.com 1.10,2013-01-10 09:02:00,
2013-01-10 01:17:00,40.8,37.0,30.13,South,179,2.0,4.0,85,0.00,,,0.02,weatherlink.com 1.10,2013-01-10 09:17:00,
2013-01-10 01:32:00,41.0,37.0,30.12,South,179,1.0,2.0,84,0.00,,,0.02,weatherlink.com 1.10,2013-01-10 09:32:00,
2013-01-10 01:47:00,40.4,36.0,30.13,South,181,0.0,2.0,85,0.00,,,0.02,weatherlink.com 1.10,2013-01-10 09:47:00,
2013-01-10 02:02:00,40.1,36.0,30.13,South,180,2.0,3.0,85,0.00,,,0.02,weatherlink.com 1.10,2013-01-10 10:02:00,
2013-01-10 02:17:00,40.3,37.0,30.13,South,180,3.0,4.0,86,0.00,,,0.02,weatherlink.com 1.10,2013-01-10 10:17:00,
2013-01-10 02:32:00,41.1,36.0,30.13,South,181,1.0,2.0,83,0.00,,,0.02,weatherlink.com 1.10,2013-01-10 10:32:00,
2013-01-10 02:47:00,41.5,37.0,30.14,South,181,0.0,3.0,84,0.00,,,0.02,weatherlink.com 1.10,2013-01-10 10:47:00,
2013-01-10 03:02:00,42.2,38.0,30.14,South,179,1.0,4.0,85,0.00,,,0.02,weatherlink.com 1.10,2013-01-10 11:02:00,
2013-01-10 03:17:00,43.3,39.0,30.14,South,180,4.0,9.0,85,0.00,,,0.02,weatherlink.com 1.10,2013-01-10 11:17:00,
2013-01-10 03:32:00,43.5,38.0,30.13,South,180,3.0,8.0,82,0.00,,,0.02,weatherlink.com 1.10,2013-01-10 11:32:00,
2013-01-10 03:47:00,43.1,38.0,30.13,South,179,2.0,6.0,83,0.00,,,0.02,weatherlink.com 1.10,2013-01-10 11:47:00,
2013-01-10 04:02:00,43.7,39.0,30.12,South,181,3.0,7.0,82,0.00,,,0.02,weatherlink.com 1.10,2013-01-10 12:02:00,
2013-01-10 04:17:00,43.5,39.0,30.12,South,179,6.0,9.0,83,0.00,,,0.02,weatherlink.com 1.10,2013-01-10 12:17:00,
2013-01-10 04:32:00,42.9,38.0,30.13,South,181,7.0,7.0,83,0.00,,,0.00,weatherlink.com 1.10,2013-01-10 12:32:00,
2013-01-10 04:47:00,42.8,38.0,30.13,South,180,3.0,10.0,82,0.00,,,0.00,weatherlink.com 1.10,2013-01-10 12:47:00,
2013-01-10 05:02:00,42.1,38.0,30.13,South,181,2.0,7.0,84,0.00,,,0.00,weatherlink.com 1.10,2013-01-10 13:02:00,
2013-01-10 05:17:00,41.7,37.0,30.13,South,180,3.0,6.0,84,0.00,,,0.00,weatherlink.com 1.10,2013-01-10 13:17:00,
2013-01-10 05:32:00,40.9,37.0,30.14,South,180,2.0,5.0,85,0.00,,,0.00,weatherlink.com 1.10,2013-01-10 13:32:00,
2013-01-10 05:48:00,40.7,37.0,30.14,South,179,2.0,4.0,85,0.00,,,0.00,weatherlink.com 1.10,2013-01-10 13:48:00,
2013-01-10 06:03:00,40.5,36.0,30.14,South,180,0.0,5.0,84,0.00,,,0.00,weatherlink.com 1.10,2013-01-10 14:03:00,
2013-01-10 06:18:00,40.2,36.0,30.14,South,180,4.0,6.0,85,0.00,,,0.00,weatherlink.com 1.10,2013-01-10 14:18:00,
2013-01-10 06:33:00,39.2,35.0,30.14,South,180,1.0,3.0,86,0.00,,,0.00,weatherlink.com 1.10,2013-01-10 14:33:00,
2013-01-10 06:48:00,37.7,35.0,30.15,South,181,2.0,3.0,88,0.00,,,0.00,weatherlink.com 1.10,2013-01-10 14:48:00,
2013-01-10 07:03:00,37.4,35.0,30.15,South,180,3.0,4.0,89,0.00,,,0.00,weatherlink.com 1.10,2013-01-10 15:03:00,
2013-01-10 07:18:00,37.8,34.0,30.16,South,179,1.0,3.0,86,0.00,,,0.00,weatherlink.com 1.10,2013-01-10 15:18:00,
2013-01-10 07:33:00,37.5,34.0,30.17,South,181,2.0,4.0,87,0.00,,,0.00,weatherlink.com 1.10,2013-01-10 15:33:00,
2013-01-10 07:48:00,36.8,34.0,30.17,South,181,4.0,5.0,88,0.00,,,0.00,weatherlink.com 1.10,2013-01-10 15:48:00,
2013-01-10 08:03:00,37.5,35.0,30.17,South,181,2.0,5.0,89,0.00,,,0.00,weatherlink.com 1.10,2013-01-10 16:03:00,
2013-01-10 08:18:00,39.5,35.0,30.18,South,181,2.0,6.0,85,0.00,,,0.00,weatherlink.com 1.10,2013-01-10 16:18:00,
2013-01-10 08:33:00,40.8,36.0,30.18,South,180,3.0,6.0,83,0.00,,,0.00,weatherlink.com 1.10,2013-01-10 16:33:00,
2013-01-10 08:48:00,42.4,37.0,30.18,South,181,4.0,8.0,82,0.00,,,0.00,weatherlink.com 1.10,2013-01-10 16:48:00,
2013-01-10 09:03:00,44.2,37.0,30.18,South,181,3.0,9.0,77,0.00,,,0.00,weatherlink.com 1.10,2013-01-10 17:03:00,
2013-01-10 09:18:00,45.6,38.0,30.18,South,181,5.0,10.0,74,0.00,,,0.00,weatherlink.com 1.10,2013-01-10 17:18:00,
2013-01-10 09:33:00,46.1,38.0,30.18,South,180,5.0,11.0,74,0.00,,,0.00,weatherlink.com 1.10,2013-01-10 17:33:00,
2013-01-10 09:48:00,46.3,39.0,30.19,South,180,5.0,10.0,76,0.00,,,0.00,weatherlink.com 1.10,2013-01-10 17:48:00,
2013-01-10 10:03:00,46.8,38.0,30.19,South,180,8.0,12.0,72,0.00,,,0.00,weatherlink.com 1.10,2013-01-10 18:03:00,
2013-01-10 10:18:00,47.2,38.0,30.19,South,180,6.0,10.0,71,0.00,,,0.00,weatherlink.com 1.10,2013-01-10 18:18:00,
2013-01-10 10:33:00,47.3,38.0,30.19,South,181,5.0,13.0,71,0.00,,,0.00,weatherlink.com 1.10,2013-01-10 18:33:00,
2013-01-10 10:48:00,47.3,38.0,30.19,South,180,2.0,14.0,69,0.00,,,0.00,weatherlink.com 1.10,2013-01-10 18:48:00,
2013-01-10 11:03:00,47.7,38.0,30.18,South,180,9.0,13.0,69,0.00,,,0.00,weatherlink.com 1.10,2013-01-10 19:03:00,
2013-01-10 11:18:00,47.3,38.0,30.18,South,180,7.0,14.0,69,0.00,,,0.00,weatherlink.com 1.10,2013-01-10 19:18:00,
2013-01-10 11:33:00,47.7,39.0,30.17,South,180,8.0,14.0,71,0.00,,,0.00,weatherlink.com 1.10,2013-01-10 19:33:00,
2013-01-10 11:48:00,48.2,38.0,30.16,South,180,4.0,13.0,69,0.00,,,0.00,weatherlink.com 1.10,2013-01-10 19:48:00,
2013-01-10 12:04:00,48.9,40.0,30.16,South,180,2.0,11.0,72,0.00,,,0.00,weatherlink.com 1.10,2013-01-10 20:04:00,
2013-01-10 12:19:00,48.9,39.0,30.15,South,180,6.0,13.0,70,0.00,,,0.00,weatherlink.com 1.10,2013-01-10 20:19:00,
2013-01-10 12:34:00,49.1,41.0,30.15,South,172,5.0,12.0,74,0.00,,,0.00,weatherlink.com 1.10,2013-01-10 20:34:00,
2013-01-10 12:49:00,49.3,40.0,30.14,South,173,9.0,12.0,70,0.00,,,0.00,weatherlink.com 1.10,2013-01-10 20:49:00,
2013-01-10 13:04:00,49.6,42.0,30.14,South,176,3.0,13.0,74,0.00,,,0.00,weatherlink.com 1.10,2013-01-10 21:04:00,
2013-01-10 13:19:00,49.8,41.0,30.14,South,181,5.0,15.0,72,0.00,,,0.00,weatherlink.com 1.10,2013-01-10 21:19:00,
2013-01-10 13:34:00,49.7,41.0,30.14,South,174,3.0,14.0,72,0.00,,,0.00,weatherlink.com 1.10,2013-01-10 21:34:00,
2013-01-10 13:49:00,49.9,40.0,30.14,South,174,9.0,18.0,70,0.00,,,0.00,weatherlink.com 1.10,2013-01-10 21:49:00,
2013-01-10 14:04:00,49.5,40.0,30.14,South,174,5.0,17.0,70,0.00,,,0.00,weatherlink.com 1.10,2013-01-10 22:04:00,
2013-01-10 14:19:00,49.9,41.0,30.13,South,174,11.0,13.0,72,0.00,,,0.00,weatherlink.com 1.10,2013-01-10 22:19:00,
2013-01-10 14:34:00,50.2,41.0,30.14,West,269,11.0,17.0,71,0.00,,,0.00,weatherlink.com 1.10,2013-01-10 22:34:00,
2013-01-10 14:49:00,49.9,41.0,30.14,WSW,247,7.0,15.0,72,0.00,,,0.00,weatherlink.com 1.10,2013-01-10 22:49:00,
2013-01-10 15:04:00,49.8,41.0,30.14,South,179,2.0,14.0,73,0.00,,,0.00,weatherlink.com 1.10,2013-01-10 23:04:00,
2013-01-10 15:19:00,49.6,41.0,30.14,South,181,3.0,15.0,72,0.00,,,0.00,weatherlink.com 1.10,2013-01-10 23:19:00,
2013-01-10 15:34:00,49.4,41.0,30.15,South,181,2.0,13.0,74,0.00,,,0.00,weatherlink.com 1.10,2013-01-10 23:34:00,
2013-01-10 15:49:00,49.1,42.0,30.15,South,180,1.0,17.0,75,0.00,,,0.00,weatherlink.com 1.10,2013-01-10 23:49:00,
2013-01-10 16:04:00,48.8,41.0,30.14,South,180,7.0,15.0,75,0.00,,,0.00,weatherlink.com 1.10,2013-01-11 00:04:00,
2013-01-10 16:19:00,48.5,41.0,30.14,NW,318,5.0,18.0,76,0.00,,,0.00,weatherlink.com 1.10,2013-01-11 00:19:00,
2013-01-10 16:34:00,48.3,41.0,30.14,WSW,239,12.0,16.0,75,0.00,,,0.00,weatherlink.com 1.10,2013-01-11 00:34:00,
2013-01-10 16:49:00,48.1,41.0,30.14,South,173,2.0,13.0,77,0.00,,,0.00,weatherlink.com 1.10,2013-01-11 00:49:00,
2013-01-10 17:04:00,47.4,41.0,30.15,South,173,9.0,12.0,77,0.00,,,0.00,weatherlink.com 1.10,2013-01-11 01:04:00,
2013-01-10 17:19:00,47.2,40.0,30.15,South,172,6.0,18.0,75,0.00,,,0.00,weatherlink.com 1.10,2013-01-11 01:19:00,
2013-01-10 17:34:00,47.2,40.0,30.16,WSW,246,11.0,19.0,75,0.00,,,0.00,weatherlink.com 1.10,2013-01-11 01:34:00,
2013-01-10 17:49:00,47.2,39.0,30.17,SW,229,6.0,15.0,74,0.00,,,0.00,weatherlink.com 1.10,2013-01-11 01:49:00,
2013-01-10 18:04:00,47.0,39.0,30.17,South,174,6.0,17.0,74,0.00,,,0.00,weatherlink.com 1.10,2013-01-11 02:04:00,
2013-01-10 18:19:00,46.3,38.0,30.17,South,174,6.0,13.0,73,0.00,,,0.00,weatherlink.com 1.10,2013-01-11 02:19:00,
2013-01-10 18:34:00,46.3,37.0,30.18,NW,323,6.0,19.0,69,0.00,,,0.00,weatherlink.com 1.10,2013-01-11 02:34:00,
2013-01-10 18:49:00,46.5,38.0,30.18,West,277,5.0,17.0,73,0.00,,,0.00,weatherlink.com 1.10,2013-01-11 02:49:00,
2013-01-10 19:04:00,45.9,38.0,30.18,South,180,6.0,13.0,73,0.00,,,0.00,weatherlink.com 1.10,2013-01-11 03:04:00,
2013-01-10 19:19:00,45.2,37.0,30.18,South,180,3.0,16.0,74,0.00,,,0.00,weatherlink.com 1.10,2013-01-11 03:19:00,
2013-01-10 19:34:00,45.3,38.0,30.19,South,180,6.0,13.0,75,0.00,,,0.00,weatherlink.com 1.10,2013-01-11 03:34:00,
2013-01-10 19:49:00,45.3,38.0,30.20,South,180,9.0,11.0,75,0.00,,,0.00,weatherlink.com 1.10,2013-01-11 03:49:00,
2013-01-10 20:04:00,44.7,38.0,30.20,South,180,4.0,11.0,76,0.00,,,0.00,weatherlink.com 1.10,2013-01-11 04:04:00,
2013-01-10 20:19:00,44.3,37.0,30.21,South,180,3.0,9.0,75,0.00,,,0.00,weatherlink.com 1.10,2013-01-11 04:19:00,
2013-01-10 20:34:00,44.1,37.0,30.21,South,180,3.0,14.0,77,0.00,,,0.00,weatherlink.com 1.10,2013-01-11 04:34:00,
2013-01-10 20:49:00,44.3,37.0,30.21,South,181,4.0,17.0,76,0.00,,,0.00,weatherlink.com 1.10,2013-01-11 04:49:00,
2013-01-10 21:05:00,44.5,37.0,30.22,South,179,2.0,16.0,75,0.00,,,0.00,weatherlink.com 1.10,2013-01-11 05:05:00,
2013-01-10 21:19:00,44.7,37.0,30.22,South,181,4.0,15.0,74,0.00,,,0.00,weatherlink.com 1.10,2013-01-11 05:19:00,
2013-01-10 21:35:00,44.6,37.0,30.23,South,180,3.0,16.0,74,0.00,,,0.00,weatherlink.com 1.10,2013-01-11 05:35:00,
2013-01-10 21:50:00,44.2,36.0,30.23,South,179,6.0,13.0,73,0.00,,,0.00,weatherlink.com 1.10,2013-01-11 05:50:00,
2013-01-10 22:05:00,44.0,36.0,30.23,South,179,7.0,12.0,73,0.00,,,0.00,weatherlink.com 1.10,2013-01-11 06:05:00,
2013-01-10 22:20:00,43.6,35.0,30.23,South,180,4.0,9.0,73,0.00,,,0.00,weatherlink.com 1.10,2013-01-11 06:20:00,
2013-01-10 22:35:00,43.5,35.0,30.23,South,180,5.0,10.0,73,0.00,,,0.00,weatherlink.com 1.10,2013-01-11 06:35:00,
2013-01-10 22:50:00,43.5,35.0,30.23,South,180,4.0,12.0,73,0.00,,,0.00,weatherlink.com 1.10,2013-01-11 06:50:00,
2013-01-10 23:05:00,43.7,35.0,30.24,South,180,6.0,11.0,72,0.00,,,0.00,weatherlink.com 1.10,2013-01-11 07:05:00,
2013-01-10 23:20:00,43.6,35.0,30.24,South,180,3.0,10.0,72,0.00,,,0.00,weatherlink.com 1.10,2013-01-11 07:20:00,
2013-01-10 23:35:00,43.9,35.0,30.24,South,180,5.0,11.0,71,0.00,,,0.00,weatherlink.com 1.10,2013-01-11 07:35:00,
2013-01-10 23:50:00,44.1,37.0,30.24,South,180,3.0,8.0,76,0.00,,,0.00,weatherlink.com 1.10,2013-01-11 07:50:00,